Azalea Ace — A8ZJ6 — position and weather

sailwx.info

Track history (hours):
 
Tides and Currents Weather Stations Pressure Air Temp Water Temp Dewpoint Dewpoint Depression Visibility Wind Speed Wind Dir Waves Ship Positions

Azalea Ace

Last reported at 2017-Oct-10 23:57 UTC. Time now 2017-Oct-17 22:04 UTC.
Position N 35°27' E 139°41'.

Length 180 m; draft 8.1 m.

Type: Cargo ship. MMSI: 636015228.

Date/timePositionNaut miles runAvg speedWind from/ knotsBaromVisibWave heightAir tempDewpointWater temp
2017-Oct-10 23:57N 35°27' E 139°41'0 0.0
2017-Oct-10 23:27N 35°27' E 139°41'0 0.0
2017-Oct-10 22:57N 35°27' E 139°41'0 0.0
2017-Oct-10 22:21N 35°27' E 139°41'0 0.0
2017-Oct-10 21:57N 35°27' E 139°41'0 0.0
2017-Oct-10 21:27N 35°27' E 139°41'0 0.0
2017-Oct-10 20:57N 35°27' E 139°41'0 0.0
2017-Oct-10 20:21N 35°27' E 139°41'0 0.0
2017-Oct-10 19:57N 35°27' E 139°41'0 0.0
2017-Oct-10 19:27N 35°27' E 139°41'0 0.0
2017-Oct-10 18:57N 35°27' E 139°41'0 0.0
2017-Oct-10 18:27N 35°27' E 139°41'0 0.0
2017-Oct-10 17:57N 35°27' E 139°41'0 0.0
2017-Oct-10 17:27N 35°27' E 139°41'0 0.0
2017-Oct-10 16:57N 35°27' E 139°41'0 0.0
2017-Oct-10 16:21N 35°27' E 139°41'0 0.0
2017-Oct-10 15:57N 35°27' E 139°41'0 0.0
2017-Oct-10 15:27N 35°27' E 139°41'0 0.0
2017-Oct-10 14:51N 35°27' E 139°41'0 0.0
2017-Oct-10 13:57N 35°27' E 139°41'0 0.0
2017-Oct-10 13:27N 35°27' E 139°41'0 0.0
2017-Oct-10 12:57N 35°27' E 139°41'0 0.0
2017-Oct-10 12:27N 35°27' E 139°41'0 0.0
2017-Oct-10 11:57N 35°27' E 139°41'0 0.0
2017-Oct-10 11:21N 35°27' E 139°41'0 0.0
2017-Oct-10 10:57N 35°27' E 139°41'0 0.0
2017-Oct-10 10:27N 35°27' E 139°41'0 0.0
2017-Oct-10 09:57N 35°27' E 139°41'0 0.0
2017-Oct-10 09:27N 35°27' E 139°41'0 0.0
2017-Oct-10 08:57N 35°27' E 139°41'0 0.0
2017-Oct-10 08:27N 35°27' E 139°41'0 0.0
2017-Oct-10 07:57N 35°27' E 139°41'1 1.4
2017-Oct-10 07:30N 35°27' E 139°42'2 3.4
2017-Oct-10 07:00N 35°25' E 139°42'3 5.4
2017-Oct-10 06:30N 35°23' E 139°42'4 8.0
2017-Oct-10 06:00N 35°19' E 139°40'1 1.2
2017-Oct-10 05:29N 35°19' E 139°39'0 0.0
2017-Oct-10 04:59N 35°19' E 139°39'0 0.0
2017-Oct-10 04:29N 35°19' E 139°39'0 0.0
2017-Oct-10 03:59N 35°19' E 139°39'0 0.0
2017-Oct-10 03:29N 35°19' E 139°39'0 0.0
2017-Oct-10 02:59N 35°19' E 139°39'0 0.0
2017-Oct-10 02:29N 35°19' E 139°39'0 0.0
2017-Oct-10 01:59N 35°19' E 139°39'0 0.0
2017-Oct-10 01:29N 35°19' E 139°39'0 0.0
2017-Oct-10 00:59N 35°19' E 139°39'0 0.0
2017-Oct-10 00:29N 35°19' E 139°39'0 0.0
2017-Oct-09 23:59N 35°19' E 139°39'0 0.0
2017-Oct-09 23:29N 35°19' E 139°39'0 0.0
2017-Oct-09 22:59N 35°19' E 139°39'0 0.7
2017-Oct-09 22:31N 35°19' E 139°39'4 7.0
2017-Oct-09 22:00N 35°19' E 139°44'611.2
2017-Oct-09 21:30N 35°14' E 139°47'510.3
2017-Oct-09 21:00N 35°08' E 139°47'3 7.0
2017-Oct-09 20:30N 35°05' E 139°46'5 9.4
2017-Oct-09 20:00N 35°01' E 139°43'510.3
2017-Oct-09 19:30N 34°56' E 139°43'5 9.8
2017-Oct-09 19:00N 34°51' E 139°43'612.2
2017-Oct-09 18:28N 34°44' E 139°43'  
Track history (hours):
 
Tides and Currents Weather Stations Pressure Air Temp Water Temp Dewpoint Dewpoint Depression Visibility Wind Speed Wind Dir Waves Ship Positions

Azalea Ace

Last reported at 2017-Oct-10 23:57 UTC. Time now 2017-Oct-17 22:04 UTC.
Position N 35°27' E 139°41'.

Length 180 m; draft 8.1 m.

Type: Cargo ship. MMSI: 636015228.

Date/timePositionNaut miles runAvg speedWind from/ knotsBaromVisibWave heightAir tempDewpointWater temp
2017-Oct-10 23:57N 35°27' E 139°41'0 0.0
2017-Oct-10 23:27N 35°27' E 139°41'0 0.0
2017-Oct-10 22:57N 35°27' E 139°41'0 0.0
2017-Oct-10 22:21N 35°27' E 139°41'0 0.0
2017-Oct-10 21:57N 35°27' E 139°41'0 0.0
2017-Oct-10 21:27N 35°27' E 139°41'0 0.0
2017-Oct-10 20:57N 35°27' E 139°41'0 0.0
2017-Oct-10 20:21N 35°27' E 139°41'0 0.0
2017-Oct-10 19:57N 35°27' E 139°41'0 0.0
2017-Oct-10 19:27N 35°27' E 139°41'0 0.0
2017-Oct-10 18:57N 35°27' E 139°41'0 0.0
2017-Oct-10 18:27N 35°27' E 139°41'0 0.0
2017-Oct-10 17:57N 35°27' E 139°41'0 0.0
2017-Oct-10 17:27N 35°27' E 139°41'0 0.0
2017-Oct-10 16:57N 35°27' E 139°41'0 0.0
2017-Oct-10 16:21N 35°27' E 139°41'0 0.0
2017-Oct-10 15:57N 35°27' E 139°41'0 0.0
2017-Oct-10 15:27N 35°27' E 139°41'0 0.0
2017-Oct-10 14:51N 35°27' E 139°41'0 0.0
2017-Oct-10 13:57N 35°27' E 139°41'0 0.0
2017-Oct-10 13:27N 35°27' E 139°41'0 0.0
2017-Oct-10 12:57N 35°27' E 139°41'0 0.0
2017-Oct-10 12:27N 35°27' E 139°41'0 0.0
2017-Oct-10 11:57N 35°27' E 139°41'0 0.0
2017-Oct-10 11:21N 35°27' E 139°41'0 0.0
2017-Oct-10 10:57N 35°27' E 139°41'0 0.0
2017-Oct-10 10:27N 35°27' E 139°41'0 0.0
2017-Oct-10 09:57N 35°27' E 139°41'0 0.0
2017-Oct-10 09:27N 35°27' E 139°41'0 0.0
2017-Oct-10 08:57N 35°27' E 139°41'0 0.0
2017-Oct-10 08:27N 35°27' E 139°41'0 0.0
2017-Oct-10 07:57N 35°27' E 139°41'1 1.4
2017-Oct-10 07:30N 35°27' E 139°42'2 3.4
2017-Oct-10 07:00N 35°25' E 139°42'3 5.4
2017-Oct-10 06:30N 35°23' E 139°42'4 8.0
2017-Oct-10 06:00N 35°19' E 139°40'1 1.2
2017-Oct-10 05:29N 35°19' E 139°39'0 0.0
2017-Oct-10 04:59N 35°19' E 139°39'0 0.0
2017-Oct-10 04:29N 35°19' E 139°39'0 0.0
2017-Oct-10 03:59N 35°19' E 139°39'0 0.0
2017-Oct-10 03:29N 35°19' E 139°39'0 0.0
2017-Oct-10 02:59N 35°19' E 139°39'0 0.0
2017-Oct-10 02:29N 35°19' E 139°39'0 0.0
2017-Oct-10 01:59N 35°19' E 139°39'0 0.0
2017-Oct-10 01:29N 35°19' E 139°39'0 0.0
2017-Oct-10 00:59N 35°19' E 139°39'0 0.0
2017-Oct-10 00:29N 35°19' E 139°39'0 0.0
2017-Oct-09 23:59N 35°19' E 139°39'0 0.0
2017-Oct-09 23:29N 35°19' E 139°39'0 0.0
2017-Oct-09 22:59N 35°19' E 139°39'0 0.7
2017-Oct-09 22:31N 35°19' E 139°39'4 7.0
2017-Oct-09 22:00N 35°19' E 139°44'611.2
2017-Oct-09 21:30N 35°14' E 139°47'510.3
2017-Oct-09 21:00N 35°08' E 139°47'3 7.0
2017-Oct-09 20:30N 35°05' E 139°46'5 9.4
2017-Oct-09 20:00N 35°01' E 139°43'510.3
2017-Oct-09 19:30N 34°56' E 139°43'5 9.8
2017-Oct-09 19:00N 34°51' E 139°43'612.2
2017-Oct-09 18:28N 34°44' E 139°43'  

Dump ship's entire track history